createdAt,value
2019-05-30T00:00:20.371Z,21.62
2019-05-30T00:01:04.217Z,21.62
2019-05-30T00:01:47.941Z,21.63
2019-05-30T00:02:31.509Z,21.64
2019-05-30T00:03:15.443Z,21.63
2019-05-30T00:03:58.926Z,21.66
2019-05-30T00:04:43.173Z,21.66
2019-05-30T00:05:26.602Z,21.66
2019-05-30T00:06:09.931Z,21.64
2019-05-30T00:06:54.324Z,21.65
2019-05-30T00:07:37.926Z,21.63
2019-05-30T00:08:21.288Z,21.62
2019-05-30T00:09:06.472Z,21.63
2019-05-30T00:09:50.748Z,21.63
2019-05-30T00:10:34.282Z,21.62
2019-05-30T00:11:17.392Z,21.62
2019-05-30T00:12:02.954Z,21.61
2019-05-30T00:12:47.118Z,21.61
2019-05-30T00:13:30.094Z,21.61
2019-05-30T00:14:15.452Z,21.60
2019-05-30T00:14:58.809Z,21.60
2019-05-30T00:15:41.649Z,21.60
2019-05-30T00:16:25.819Z,21.60
2019-05-30T00:17:09.610Z,21.60
2019-05-30T00:17:52.659Z,21.60
2019-05-30T00:18:36.240Z,21.60
2019-05-30T00:19:19.705Z,21.60
2019-05-30T00:20:03.437Z,21.60
2019-05-30T00:20:47.432Z,21.59
2019-05-30T00:21:31.162Z,21.59
2019-05-30T00:22:14.890Z,21.59
2019-05-30T00:22:58.876Z,21.59
2019-05-30T00:23:43.206Z,21.59
2019-05-30T00:24:26.106Z,21.59
2019-05-30T00:25:09.559Z,21.59
2019-05-30T00:25:53.311Z,21.58
2019-05-30T00:26:36.423Z,21.59
2019-05-30T00:27:20.230Z,21.58
2019-05-30T00:28:05.153Z,21.58
2019-05-30T00:28:48.029Z,21.58
2019-05-30T00:29:31.877Z,21.57
2019-05-30T00:30:24.351Z,21.58
2019-05-30T00:31:00.448Z,21.59
2019-05-30T00:31:43.919Z,21.58
2019-05-30T00:32:27.628Z,21.59
2019-05-30T00:33:10.529Z,21.58
2019-05-30T00:33:55.518Z,21.58
2019-05-30T00:34:39.459Z,21.59
2019-05-30T00:35:22.700Z,21.59
2019-05-30T00:36:06.662Z,21.57
2019-05-30T00:36:50.500Z,21.57
2019-05-30T00:37:33.710Z,21.57
2019-05-30T00:38:17.220Z,21.57
2019-05-30T00:39:01.911Z,21.55
2019-05-30T00:39:44.445Z,21.56
2019-05-30T00:40:28.394Z,21.56
2019-05-30T00:41:12.228Z,21.56
2019-05-30T00:41:56.025Z,21.55
2019-05-30T00:42:39.936Z,21.57
2019-05-30T00:43:23.463Z,21.56
2019-05-30T00:44:06.396Z,21.56
2019-05-30T00:44:50.380Z,21.56
2019-05-30T00:45:33.981Z,21.56
2019-05-30T00:46:16.873Z,21.56
2019-05-30T00:47:00.651Z,21.56
2019-05-30T00:47:44.114Z,21.55
2019-05-30T00:48:27.645Z,21.56
2019-05-30T00:49:11.097Z,21.56
2019-05-30T00:49:54.612Z,21.54
2019-05-30T00:50:37.535Z,21.54
2019-05-30T00:51:21.201Z,21.54
2019-05-30T00:52:05.232Z,21.54
2019-05-30T00:52:48.119Z,21.54
2019-05-30T00:53:32.087Z,21.54
2019-05-30T00:54:15.537Z,21.53
2019-05-30T00:54:58.438Z,21.53
2019-05-30T00:55:42.038Z,21.53
2019-05-30T00:56:25.613Z,21.53
2019-05-30T00:57:09.047Z,21.52
2019-05-30T00:57:53.152Z,21.52
2019-05-30T00:58:36.875Z,21.52
2019-05-30T00:59:19.992Z,21.52
2019-05-30T01:00:05.052Z,21.51
2019-05-30T01:00:48.529Z,21.52
2019-05-30T01:01:31.585Z,21.52
2019-05-30T01:02:15.435Z,21.52
2019-05-30T01:03:01.657Z,21.53
2019-05-30T01:03:44.200Z,21.53
2019-05-30T01:04:27.799Z,21.53
2019-05-30T01:05:11.814Z,21.54
2019-05-30T01:05:55.029Z,21.53
2019-05-30T01:06:38.243Z,21.52
2019-05-30T01:07:21.974Z,21.53
2019-05-30T01:08:05.241Z,21.52
2019-05-30T01:08:48.997Z,21.52
2019-05-30T01:09:32.652Z,21.52
2019-05-30T01:10:15.710Z,21.52
2019-05-30T01:10:59.060Z,21.50
2019-05-30T01:11:42.795Z,21.51
2019-05-30T01:12:25.831Z,21.51
2019-05-30T01:13:09.445Z,21.51
2019-05-30T01:13:53.211Z,21.51
2019-05-30T01:14:36.405Z,21.50
2019-05-30T01:15:20.503Z,21.50
2019-05-30T01:16:05.503Z,21.51
2019-05-30T01:16:48.707Z,21.51
2019-05-30T01:17:32.182Z,21.50
2019-05-30T01:18:15.620Z,21.51
2019-05-30T01:18:59.075Z,21.51
2019-05-30T01:19:42.652Z,21.51
2019-05-30T01:20:26.539Z,21.50
2019-05-30T01:21:09.389Z,21.51
2019-05-30T01:21:52.834Z,21.51
2019-05-30T01:22:38.298Z,21.51
2019-05-30T01:23:21.296Z,21.51
2019-05-30T01:24:05.622Z,21.50
2019-05-30T01:24:49.167Z,21.49
2019-05-30T01:25:32.027Z,21.50
2019-05-30T01:26:15.729Z,21.50
2019-05-30T01:26:59.303Z,21.49
2019-05-30T01:27:42.143Z,21.50
2019-05-30T01:28:25.712Z,21.49
2019-05-30T01:29:09.273Z,21.49
2019-05-30T01:29:52.193Z,21.49
2019-05-30T01:30:35.894Z,21.49
2019-05-30T01:31:19.609Z,21.48
2019-05-30T01:32:05.532Z,21.49
2019-05-30T01:32:48.993Z,21.48
2019-05-30T01:33:32.377Z,21.49
2019-05-30T01:34:15.105Z,21.48
2019-05-30T01:34:59.858Z,21.47
2019-05-30T01:35:43.438Z,21.47
2019-05-30T01:36:26.967Z,21.48
2019-05-30T01:37:11.171Z,21.48
2019-05-30T01:37:54.793Z,21.48
2019-05-30T01:38:37.904Z,21.48
2019-05-30T01:39:21.394Z,21.48
2019-05-30T01:40:06.531Z,21.47
2019-05-30T01:40:49.765Z,21.47
2019-05-30T01:41:33.485Z,21.48
2019-05-30T01:42:17.139Z,21.48
2019-05-30T01:43:00.095Z,21.47
2019-05-30T01:43:43.773Z,21.48
2019-05-30T01:44:28.024Z,21.47
2019-05-30T01:45:11.177Z,21.47
2019-05-30T01:45:54.438Z,21.47
2019-05-30T01:46:38.130Z,21.47
2019-05-30T01:47:20.781Z,21.48
2019-05-30T01:48:04.692Z,21.49
2019-05-30T01:48:48.461Z,21.49
2019-05-30T01:49:31.657Z,21.48
2019-05-30T01:50:17.281Z,21.48
2019-05-30T01:51:00.965Z,21.49
2019-05-30T01:51:45.119Z,21.49
2019-05-30T01:52:28.683Z,21.48
2019-05-30T01:53:12.531Z,21.48
2019-05-30T01:53:55.316Z,21.48
2019-05-30T01:54:38.964Z,21.48
2019-05-30T01:55:22.789Z,21.47
2019-05-30T01:56:06.815Z,21.47
2019-05-30T01:56:50.220Z,21.48
2019-05-30T01:57:33.889Z,21.48
2019-05-30T01:58:17.330Z,21.47
2019-05-30T01:59:01.114Z,21.46
2019-05-30T01:59:44.927Z,21.47
2019-05-30T02:00:38.936Z,21.46
2019-05-30T02:01:25.085Z,21.46
2019-05-30T02:02:09.201Z,21.46
2019-05-30T02:02:52.458Z,21.46
2019-05-30T02:03:35.784Z,21.47
2019-05-30T02:04:19.088Z,21.47
2019-05-30T02:05:03.015Z,21.46
2019-05-30T02:05:46.541Z,21.47
2019-05-30T02:06:30.593Z,21.47
2019-05-30T02:07:14.064Z,21.46
2019-05-30T02:07:59.017Z,21.46
2019-05-30T02:08:42.835Z,21.46
2019-05-30T02:09:25.717Z,21.46
2019-05-30T02:10:10.037Z,21.46
2019-05-30T02:10:54.054Z,21.46
2019-05-30T02:11:37.139Z,21.45
2019-05-30T02:12:21.278Z,21.45
2019-05-30T02:13:05.661Z,21.44
2019-05-30T02:13:48.973Z,21.46
2019-05-30T02:14:32.303Z,21.46
2019-05-30T02:15:16.034Z,21.46
2019-05-30T02:15:59.610Z,21.46
2019-05-30T02:16:43.054Z,21.46
2019-05-30T02:17:26.718Z,21.46
2019-05-30T02:18:10.131Z,21.47
2019-05-30T02:18:53.626Z,21.47
2019-05-30T02:19:36.959Z,21.48
2019-05-30T02:20:20.652Z,21.48
2019-05-30T02:21:04.247Z,21.48
2019-05-30T02:21:48.108Z,21.48
2019-05-30T02:22:31.150Z,21.48
2019-05-30T02:23:15.056Z,21.49
2019-05-30T02:23:58.214Z,21.48
2019-05-30T02:24:41.215Z,21.48
2019-05-30T02:25:25.292Z,21.48
2019-05-30T02:26:10.575Z,21.48
2019-05-30T02:26:53.634Z,21.49
2019-05-30T02:27:37.517Z,21.48
2019-05-30T02:28:21.230Z,21.48
2019-05-30T02:29:04.244Z,21.47
2019-05-30T02:29:47.950Z,21.47
2019-05-30T02:30:31.942Z,21.45
2019-05-30T02:31:14.861Z,21.47
2019-05-30T02:31:58.460Z,21.47
2019-05-30T02:32:41.926Z,21.46
2019-05-30T02:33:24.778Z,21.46
2019-05-30T02:34:10.147Z,21.46
2019-05-30T02:34:53.295Z,21.45
2019-05-30T02:35:36.162Z,21.46
2019-05-30T02:36:19.672Z,21.45
2019-05-30T02:37:05.344Z,21.45
2019-05-30T02:37:47.838Z,21.46
2019-05-30T02:38:31.268Z,21.45
2019-05-30T02:39:15.005Z,21.46
2019-05-30T02:40:00.959Z,21.46
2019-05-30T02:40:43.184Z,21.46
2019-05-30T02:41:26.792Z,21.46
2019-05-30T02:42:11.510Z,21.46
2019-05-30T02:42:54.723Z,21.46
2019-05-30T02:43:38.737Z,21.45
2019-05-30T02:44:21.878Z,21.44
2019-05-30T02:45:10.709Z,21.43
2019-05-30T02:45:54.316Z,21.44
2019-05-30T02:46:37.655Z,21.44
2019-05-30T02:47:22.515Z,21.43
2019-05-30T02:48:07.358Z,21.43
2019-05-30T02:48:58.624Z,21.43
2019-05-30T02:49:36.445Z,21.43
2019-05-30T02:50:19.916Z,21.44
2019-05-30T02:51:03.380Z,21.44
2019-05-30T02:51:47.080Z,21.44
2019-05-30T02:52:31.862Z,21.43
2019-05-30T02:53:15.087Z,21.43
2019-05-30T02:53:58.584Z,21.42
2019-05-30T02:54:42.045Z,21.43
2019-05-30T02:55:25.049Z,21.43
2019-05-30T02:56:10.260Z,21.42
2019-05-30T02:56:54.073Z,21.42
2019-05-30T02:57:37.109Z,21.43
2019-05-30T02:58:20.732Z,21.43
2019-05-30T02:59:05.937Z,21.42
2019-05-30T02:59:48.508Z,21.44
2019-05-30T03:00:34.968Z,21.44
2019-05-30T03:01:18.761Z,21.45
2019-05-30T03:02:05.257Z,21.44
2019-05-30T03:02:47.976Z,21.44
2019-05-30T03:03:31.436Z,21.43
2019-05-30T03:04:14.840Z,21.44
2019-05-30T03:04:58.562Z,21.42
2019-05-30T03:05:42.234Z,21.42
2019-05-30T03:06:25.354Z,21.41
2019-05-30T03:07:10.698Z,21.40
2019-05-30T03:07:54.198Z,21.42
2019-05-30T03:08:37.445Z,21.41
2019-05-30T03:09:21.366Z,21.41
2019-05-30T03:10:09.446Z,21.41
2019-05-30T03:10:52.778Z,21.42
2019-05-30T03:11:36.453Z,21.41
2019-05-30T03:12:20.442Z,21.41
2019-05-30T03:13:04.320Z,21.40
2019-05-30T03:13:50.324Z,21.40
2019-05-30T03:14:35.041Z,21.41
2019-05-30T03:15:17.778Z,21.40
2019-05-30T03:16:02.214Z,21.40
2019-05-30T03:16:46.229Z,21.41
2019-05-30T03:17:29.462Z,21.42
2019-05-30T03:18:14.943Z,21.41
2019-05-30T03:18:58.059Z,21.42
2019-05-30T03:19:40.960Z,21.40
2019-05-30T03:20:24.586Z,21.41
2019-05-30T03:21:10.295Z,21.42
2019-05-30T03:21:52.996Z,21.41
2019-05-30T03:22:36.727Z,21.41
2019-05-30T03:23:20.537Z,21.40
2019-05-30T03:24:05.007Z,21.41
2019-05-30T03:24:49.179Z,21.41
2019-05-30T03:25:32.651Z,21.40
2019-05-30T03:26:16.352Z,21.39
2019-05-30T03:27:02.469Z,21.39
2019-05-30T03:27:46.197Z,21.38
2019-05-30T03:28:29.216Z,21.38
2019-05-30T03:29:14.336Z,21.38
2019-05-30T03:29:58.784Z,21.39
2019-05-30T03:30:42.183Z,21.38
2019-05-30T03:31:29.314Z,21.38
2019-05-30T03:32:58.324Z,21.39
2019-05-30T03:33:12.876Z,21.38
2019-05-30T03:33:42.754Z,21.37
2019-05-30T03:34:28.790Z,21.38
2019-05-30T03:35:24.020Z,21.38
2019-05-30T03:35:56.768Z,21.38
2019-05-30T03:36:40.514Z,21.37
2019-05-30T03:37:29.415Z,21.36
2019-05-30T03:38:12.441Z,21.37
2019-05-30T03:38:55.406Z,21.36
2019-05-30T03:39:38.347Z,21.35
2019-05-30T03:40:23.490Z,21.35
2019-05-30T03:41:09.096Z,21.35
2019-05-30T03:41:52.027Z,21.34
2019-05-30T03:42:35.707Z,21.35
2019-05-30T03:43:19.181Z,21.35
2019-05-30T03:44:03.846Z,21.34
2019-05-30T03:44:47.599Z,21.35
2019-05-30T03:45:31.069Z,21.35
2019-05-30T03:46:22.942Z,21.34
2019-05-30T03:47:08.636Z,21.36
2019-05-30T03:47:54.216Z,21.35
2019-05-30T03:48:36.897Z,21.36
2019-05-30T03:49:23.907Z,21.36
2019-05-30T03:50:09.785Z,21.36
2019-05-30T03:50:52.999Z,21.38
2019-05-30T03:51:36.823Z,21.40
2019-05-30T03:52:20.635Z,21.40
2019-05-30T03:53:04.631Z,21.41
2019-05-30T03:53:48.979Z,21.42
2019-05-30T03:54:32.944Z,21.42
2019-05-30T03:55:16.797Z,21.41
2019-05-30T03:56:04.544Z,21.41
2019-05-30T03:56:54.612Z,21.41
2019-05-30T03:57:57.225Z,21.41
2019-05-30T03:58:49.503Z,21.42
2019-05-30T03:59:38.856Z,21.41
2019-05-30T04:00:59.282Z,21.40
2019-05-30T04:02:18.966Z,21.40
2019-05-30T04:03:06.664Z,21.37
2019-05-30T04:03:56.763Z,21.35
2019-05-30T04:04:49.095Z,21.33
2019-05-30T04:05:35.996Z,21.32
2019-05-30T04:06:28.855Z,21.33
2019-05-30T04:07:15.947Z,21.33
2019-05-30T04:07:59.494Z,21.31
2019-05-30T04:08:43.031Z,21.31
2019-05-30T04:09:26.016Z,21.33
2019-05-30T04:10:11.433Z,21.34
2019-05-30T04:10:55.654Z,21.32
2019-05-30T04:11:44.570Z,21.33
2019-05-30T04:12:34.105Z,21.34
2019-05-30T04:13:25.373Z,21.34
2019-05-30T04:14:10.907Z,21.35
2019-05-30T04:14:56.379Z,21.34
2019-05-30T04:15:38.969Z,21.34
2019-05-30T04:16:22.637Z,21.32
2019-05-30T04:17:08.144Z,21.32
2019-05-30T04:17:51.599Z,21.33
2019-05-30T04:18:35.244Z,21.34
2019-05-30T04:19:20.049Z,21.35
2019-05-30T04:20:05.031Z,21.33
2019-05-30T04:20:48.297Z,21.35
2019-05-30T04:21:32.396Z,21.34
2019-05-30T04:22:15.610Z,21.36
2019-05-30T04:22:59.261Z,21.36
2019-05-30T04:23:43.119Z,21.36
2019-05-30T04:24:26.378Z,21.36
2019-05-30T04:25:10.209Z,21.37
2019-05-30T04:25:53.682Z,21.37
2019-05-30T04:26:37.019Z,21.36
2019-05-30T04:27:20.708Z,21.37
2019-05-30T04:28:04.145Z,21.38
2019-05-30T04:28:47.022Z,21.37
2019-05-30T04:29:30.722Z,21.38
2019-05-30T04:30:16.330Z,21.39
2019-05-30T04:30:59.432Z,21.40
2019-05-30T04:31:43.279Z,21.40
2019-05-30T04:32:26.919Z,21.40
2019-05-30T04:33:21.755Z,21.39
2019-05-30T04:33:55.380Z,21.39
2019-05-30T04:34:39.135Z,21.39
2019-05-30T04:35:22.389Z,21.40
2019-05-30T04:36:06.154Z,21.40
2019-05-30T04:36:53.188Z,21.40
2019-05-30T04:37:34.657Z,21.40
2019-05-30T04:38:19.554Z,21.39
2019-05-30T04:39:03.344Z,21.39
2019-05-30T04:39:46.227Z,21.40
2019-05-30T04:40:29.781Z,21.41
2019-05-30T04:41:13.627Z,21.41
2019-05-30T04:41:58.431Z,21.41
2019-05-30T04:42:41.930Z,21.43
2019-05-30T04:43:25.931Z,21.42
2019-05-30T04:44:09.901Z,21.43
2019-05-30T04:44:53.640Z,21.43
2019-05-30T04:45:37.429Z,21.43
2019-05-30T04:46:21.787Z,21.45
2019-05-30T04:47:05.587Z,21.44
2019-05-30T04:47:49.264Z,21.46
2019-05-30T04:48:32.336Z,21.47
2019-05-30T04:49:16.914Z,21.48
2019-05-30T04:50:01.201Z,21.48
2019-05-30T04:50:44.560Z,21.48
2019-05-30T04:51:28.006Z,21.48
2019-05-30T04:52:15.752Z,21.48
2019-05-30T04:52:56.066Z,21.49
2019-05-30T04:53:39.274Z,21.49
2019-05-30T04:54:22.848Z,21.50
2019-05-30T04:55:08.189Z,21.50
2019-05-30T04:55:51.812Z,21.52
2019-05-30T04:56:35.878Z,21.52
2019-05-30T04:57:25.174Z,21.54
2019-05-30T04:58:04.647Z,21.53
2019-05-30T04:58:48.412Z,21.52
2019-05-30T04:59:31.566Z,21.53
2019-05-30T05:00:17.112Z,21.52
2019-05-30T05:01:00.727Z,21.53
2019-05-30T05:01:43.652Z,21.52
2019-05-30T05:02:27.203Z,21.52
2019-05-30T05:03:11.392Z,21.52
2019-05-30T05:03:55.070Z,21.52
2019-05-30T05:04:38.566Z,21.52
2019-05-30T05:05:26.312Z,21.51
2019-05-30T05:06:07.038Z,21.51
2019-05-30T05:06:50.789Z,21.50
2019-05-30T05:07:34.131Z,21.50
2019-05-30T05:08:17.901Z,21.50
2019-05-30T05:09:01.610Z,21.49
2019-05-30T05:09:45.610Z,21.48
2019-05-30T05:10:29.136Z,21.49
2019-05-30T05:11:16.528Z,21.48
2019-05-30T05:11:58.248Z,21.48
2019-05-30T05:12:41.607Z,21.47
2019-05-30T05:13:25.012Z,21.46
2019-05-30T05:14:08.365Z,21.47
2019-05-30T05:14:51.310Z,21.46
2019-05-30T05:15:34.994Z,21.45
2019-05-30T05:16:25.983Z,21.46
2019-05-30T05:17:03.265Z,21.45
2019-05-30T05:17:47.314Z,21.44
2019-05-30T05:18:31.143Z,21.44
2019-05-30T05:19:14.918Z,21.43
2019-05-30T05:19:58.491Z,21.43
2019-05-30T05:20:41.938Z,21.42
2019-05-30T05:21:25.409Z,21.41
2019-05-30T05:22:09.324Z,21.40
2019-05-30T05:22:53.036Z,21.40
2019-05-30T05:23:36.310Z,21.39
2019-05-30T05:24:19.492Z,21.40
2019-05-30T05:25:03.485Z,21.40
2019-05-30T05:25:59.823Z,21.39
2019-05-30T05:26:32.652Z,21.38
2019-05-30T05:27:17.578Z,21.38
2019-05-30T05:28:00.431Z,21.38
2019-05-30T05:28:44.173Z,21.37
2019-05-30T05:29:27.794Z,21.37
2019-05-30T05:30:11.116Z,21.37
2019-05-30T05:30:54.690Z,21.37
2019-05-30T05:31:38.677Z,21.36
2019-05-30T05:32:22.645Z,21.36
2019-05-30T05:33:06.727Z,21.36
2019-05-30T05:33:56.599Z,21.35
2019-05-30T05:34:36.014Z,21.34
2019-05-30T05:35:20.894Z,21.34
2019-05-30T05:36:04.201Z,21.35
2019-05-30T05:36:47.210Z,21.34
2019-05-30T05:37:30.779Z,21.34
2019-05-30T05:38:16.122Z,21.35
2019-05-30T05:38:59.347Z,21.35
2019-05-30T05:39:42.998Z,21.35
2019-05-30T05:40:26.315Z,21.35
2019-05-30T05:41:09.157Z,21.35
2019-05-30T05:41:52.840Z,21.34
2019-05-30T05:42:36.515Z,21.35
2019-05-30T05:43:20.283Z,21.34
2019-05-30T05:44:04.390Z,21.34
2019-05-30T05:44:48.525Z,21.34
2019-05-30T05:45:32.118Z,21.34
2019-05-30T05:46:16.438Z,21.34
2019-05-30T05:47:00.215Z,21.34
2019-05-30T05:47:43.847Z,21.34
2019-05-30T05:48:27.344Z,21.34
2019-05-30T05:49:11.114Z,21.34
2019-05-30T05:49:54.419Z,21.34
2019-05-30T05:50:38.218Z,21.34
2019-05-30T05:51:22.763Z,21.32
2019-05-30T05:52:05.840Z,21.32
2019-05-30T05:52:49.305Z,21.32
2019-05-30T05:53:33.354Z,21.31
2019-05-30T05:54:16.830Z,21.30
2019-05-30T05:55:00.402Z,21.30
2019-05-30T05:55:43.928Z,21.29
2019-05-30T05:56:27.032Z,21.31
2019-05-30T05:57:10.505Z,21.31
2019-05-30T05:57:54.303Z,21.29
2019-05-30T05:58:37.820Z,21.29
2019-05-30T05:59:21.280Z,21.28
2019-05-30T06:00:07.547Z,21.28
2019-05-30T06:00:50.443Z,21.26
2019-05-30T06:01:34.101Z,21.27
2019-05-30T06:02:19.319Z,21.27
2019-05-30T06:03:02.190Z,21.27
2019-05-30T06:03:46.463Z,21.27
2019-05-30T06:04:30.361Z,21.26
2019-05-30T06:05:14.198Z,21.26
2019-05-30T06:05:58.225Z,21.25
2019-05-30T06:06:41.745Z,21.25
2019-05-30T06:07:24.807Z,21.24
2019-05-30T06:08:08.513Z,21.24
2019-05-30T06:08:52.475Z,21.24
2019-05-30T06:09:35.545Z,21.21
2019-05-30T06:10:19.574Z,21.23
2019-05-30T06:11:03.207Z,21.22
2019-05-30T06:11:48.985Z,21.21
2019-05-30T06:12:30.885Z,21.22
2019-05-30T06:13:14.791Z,21.23
2019-05-30T06:13:57.373Z,21.24
2019-05-30T06:14:41.044Z,21.24
2019-05-30T06:15:24.987Z,21.27
2019-05-30T06:16:07.848Z,21.27
2019-05-30T06:16:51.345Z,21.29
2019-05-30T06:17:34.581Z,21.30
2019-05-30T06:18:18.134Z,21.31
2019-05-30T06:19:01.731Z,21.33
2019-05-30T06:19:46.825Z,21.33
2019-05-30T06:20:29.333Z,21.35
2019-05-30T06:21:12.723Z,21.34
2019-05-30T06:21:56.225Z,21.35
2019-05-30T06:22:38.931Z,21.36
2019-05-30T06:23:22.181Z,21.36
2019-05-30T06:24:05.640Z,21.37
2019-05-30T06:24:48.256Z,21.37
2019-05-30T06:25:32.915Z,21.38
2019-05-30T06:26:17.678Z,21.38
2019-05-30T06:27:00.812Z,21.38
2019-05-30T06:27:44.388Z,21.38
2019-05-30T06:28:28.303Z,21.37
2019-05-30T06:29:11.636Z,21.36
2019-05-30T06:29:55.507Z,21.36
2019-05-30T06:30:39.121Z,21.35
2019-05-30T06:31:22.488Z,21.32
2019-05-30T06:32:06.198Z,21.31
2019-05-30T06:32:49.729Z,21.30
2019-05-30T06:33:32.885Z,21.28
2019-05-30T06:34:30.338Z,21.26
2019-05-30T06:35:01.802Z,21.25
2019-05-30T06:35:44.846Z,21.23
2019-05-30T06:36:29.319Z,21.21
2019-05-30T06:37:13.017Z,21.21
2019-05-30T06:37:55.878Z,21.20
2019-05-30T06:38:39.221Z,21.19
2019-05-30T06:39:23.448Z,21.18
2019-05-30T06:40:06.645Z,21.17
2019-05-30T06:40:50.615Z,21.17
2019-05-30T06:41:34.433Z,21.16
2019-05-30T06:42:17.593Z,21.15
2019-05-30T06:43:01.599Z,21.15
2019-05-30T06:43:45.261Z,21.17
2019-05-30T06:44:28.425Z,21.17
2019-05-30T06:45:12.036Z,21.16
2019-05-30T06:45:55.887Z,21.17
2019-05-30T06:46:38.696Z,21.17
2019-05-30T06:47:22.664Z,21.14
2019-05-30T06:48:06.685Z,21.13
2019-05-30T06:48:49.633Z,21.15
2019-05-30T06:49:33.385Z,21.15
2019-05-30T06:50:16.945Z,21.15
2019-05-30T06:51:00.204Z,21.14
2019-05-30T06:51:43.452Z,21.15
2019-05-30T06:52:27.343Z,21.16
2019-05-30T06:53:10.462Z,21.17
2019-05-30T06:53:54.535Z,21.16
2019-05-30T06:54:38.149Z,21.17
2019-05-30T06:55:21.411Z,21.18
2019-05-30T06:56:05.520Z,21.17
2019-05-30T06:56:49.169Z,21.17
2019-05-30T06:57:32.318Z,21.17
2019-05-30T06:58:15.948Z,21.16
2019-05-30T06:59:00.101Z,21.15
2019-05-30T06:59:42.671Z,21.17
2019-05-30T07:00:26.437Z,21.15
2019-05-30T07:01:10.111Z,21.15
2019-05-30T07:01:53.406Z,21.15
2019-05-30T07:02:37.180Z,21.14
2019-05-30T07:03:21.983Z,21.15
2019-05-30T07:04:05.305Z,21.14
2019-05-30T07:04:52.179Z,21.15
2019-05-30T07:05:35.298Z,21.17
2019-05-30T07:06:18.704Z,21.18
2019-05-30T07:07:05.734Z,21.18
2019-05-30T07:07:48.042Z,21.17
2019-05-30T07:08:31.281Z,21.17
2019-05-30T07:09:14.647Z,21.17
2019-05-30T07:09:58.111Z,21.17
2019-05-30T07:10:40.741Z,21.15
2019-05-30T07:11:24.766Z,21.14
2019-05-30T07:12:11.953Z,21.14
2019-05-30T07:12:53.897Z,21.14
2019-05-30T07:13:37.419Z,21.13
2019-05-30T07:14:21.017Z,21.13
2019-05-30T07:15:09.739Z,21.13
2019-05-30T07:15:53.559Z,21.13
2019-05-30T07:16:37.350Z,21.11
2019-05-30T07:17:20.596Z,21.12
2019-05-30T07:18:04.274Z,21.11
2019-05-30T07:18:47.719Z,21.12
2019-05-30T07:19:31.684Z,21.11
2019-05-30T07:20:15.620Z,21.11
2019-05-30T07:20:59.285Z,21.10
2019-05-30T07:21:42.163Z,21.10
2019-05-30T07:22:25.836Z,21.10
2019-05-30T07:23:09.511Z,21.10
2019-05-30T07:23:52.782Z,21.11
2019-05-30T07:24:36.415Z,21.11
2019-05-30T07:25:20.351Z,21.11
2019-05-30T07:26:03.729Z,21.11
2019-05-30T07:26:47.889Z,21.11
2019-05-30T07:27:32.033Z,21.10
2019-05-30T07:28:15.203Z,21.10
2019-05-30T07:29:00.768Z,21.09
2019-05-30T07:29:44.320Z,21.09
2019-05-30T07:30:27.952Z,21.09
2019-05-30T07:31:11.593Z,21.09
2019-05-30T07:31:55.026Z,21.10
2019-05-30T07:32:37.963Z,21.09
2019-05-30T07:33:21.439Z,21.09
2019-05-30T07:34:05.236Z,21.09
2019-05-30T07:34:48.293Z,21.09
2019-05-30T07:35:32.247Z,21.08
2019-05-30T07:36:15.750Z,21.09
2019-05-30T07:36:58.964Z,21.09
2019-05-30T07:37:46.387Z,21.09
2019-05-30T07:38:28.397Z,21.09
2019-05-30T07:39:12.135Z,21.10
2019-05-30T07:39:55.864Z,21.11
2019-05-30T07:40:39.537Z,21.12
2019-05-30T07:41:22.465Z,21.13
2019-05-30T07:42:06.925Z,21.14
2019-05-30T07:42:50.313Z,21.13
2019-05-30T07:43:33.616Z,21.15
2019-05-30T07:44:17.432Z,21.15
2019-05-30T07:45:00.994Z,21.17
2019-05-30T07:45:51.733Z,21.15
2019-05-30T07:46:29.600Z,21.15
2019-05-30T07:47:12.954Z,21.16
2019-05-30T07:47:55.868Z,21.17
2019-05-30T07:48:39.414Z,21.17
2019-05-30T07:49:23.148Z,21.17
2019-05-30T07:50:07.596Z,21.15
2019-05-30T07:50:51.368Z,21.14
2019-05-30T07:51:35.225Z,21.15
2019-05-30T07:52:18.577Z,21.15
2019-05-30T07:53:02.037Z,21.17
2019-05-30T07:53:45.794Z,21.15
2019-05-30T07:54:29.049Z,21.17
2019-05-30T07:55:12.513Z,21.16
2019-05-30T07:55:56.446Z,21.16
2019-05-30T07:56:39.796Z,21.18
2019-05-30T07:57:23.800Z,21.17
2019-05-30T07:58:07.715Z,21.18
2019-05-30T07:58:50.842Z,21.18
2019-05-30T07:59:35.976Z,21.19
2019-05-30T08:00:19.561Z,21.18
2019-05-30T08:01:02.064Z,21.19
2019-05-30T08:01:45.545Z,21.21
2019-05-30T08:02:29.594Z,21.23
2019-05-30T08:03:12.402Z,21.22
2019-05-30T08:03:55.938Z,21.23
2019-05-30T08:04:39.434Z,21.24
2019-05-30T08:05:24.863Z,21.25
2019-05-30T08:06:08.392Z,21.25
2019-05-30T08:06:51.551Z,21.25
2019-05-30T08:07:35.068Z,21.27
2019-05-30T08:08:18.640Z,21.26
2019-05-30T08:09:01.982Z,21.28
2019-05-30T08:09:45.141Z,21.27
2019-05-30T08:10:29.815Z,21.27
2019-05-30T08:11:16.488Z,21.29
2019-05-30T08:11:59.709Z,21.30
2019-05-30T08:12:49.878Z,21.31
2019-05-30T08:13:33.720Z,21.33
2019-05-30T08:14:16.866Z,21.34
2019-05-30T08:15:00.741Z,21.34
2019-05-30T08:15:44.820Z,21.36
2019-05-30T08:16:29.088Z,21.36
2019-05-30T08:17:12.690Z,21.36
2019-05-30T08:17:56.169Z,21.36
2019-05-30T08:18:39.287Z,21.37
2019-05-30T08:19:23.012Z,21.37
2019-05-30T08:20:10.250Z,21.38
2019-05-30T08:20:53.265Z,21.38
2019-05-30T08:21:37.963Z,21.38
2019-05-30T08:22:21.833Z,21.39
2019-05-30T08:23:04.950Z,21.37
2019-05-30T08:23:48.842Z,21.38
2019-05-30T08:24:32.389Z,21.38
2019-05-30T08:25:15.706Z,21.37
2019-05-30T08:25:59.587Z,21.38
2019-05-30T08:26:43.448Z,21.37
2019-05-30T08:27:26.360Z,21.37
2019-05-30T08:28:09.911Z,21.36
2019-05-30T08:28:53.788Z,21.36
2019-05-30T08:29:38.450Z,21.35
2019-05-30T08:30:22.141Z,21.35
2019-05-30T08:31:06.123Z,21.34
2019-05-30T08:31:49.582Z,21.34
2019-05-30T08:32:55.890Z,21.38
2019-05-30T08:33:39.728Z,21.35
2019-05-30T08:34:23.305Z,21.34
2019-05-30T08:35:07.518Z,21.35
2019-05-30T08:35:50.581Z,21.36
2019-05-30T08:36:34.994Z,21.36
2019-05-30T08:37:18.605Z,21.35
2019-05-30T08:38:01.704Z,21.37
2019-05-30T08:38:48.128Z,21.37
2019-05-30T08:39:31.613Z,21.39
2019-05-30T08:40:14.569Z,21.40
2019-05-30T08:40:57.860Z,21.41
2019-05-30T08:41:41.612Z,21.41
2019-05-30T08:42:27.776Z,21.43
2019-05-30T08:43:10.529Z,21.43
2019-05-30T08:43:54.066Z,21.43
2019-05-30T08:44:38.011Z,21.43
2019-05-30T08:45:22.636Z,21.43
2019-05-30T08:46:06.122Z,21.43
2019-05-30T08:46:49.325Z,21.43
2019-05-30T08:47:33.963Z,21.44
2019-05-30T08:48:17.620Z,21.45
2019-05-30T08:49:01.823Z,21.45
2019-05-30T08:49:45.616Z,21.46
2019-05-30T08:50:30.145Z,21.47
2019-05-30T08:51:13.203Z,21.49
2019-05-30T08:51:57.139Z,21.50
2019-05-30T08:52:41.186Z,21.51
2019-05-30T08:53:24.579Z,21.51
2019-05-30T08:54:08.187Z,21.51
2019-05-30T08:54:52.172Z,21.54
2019-05-30T08:55:36.397Z,21.54
2019-05-30T08:56:19.735Z,21.54
2019-05-30T08:57:03.276Z,21.56
2019-05-30T08:57:46.598Z,21.57
2019-05-30T08:58:30.431Z,21.61
2019-05-30T08:59:15.111Z,21.61
2019-05-30T08:59:58.309Z,21.62
2019-05-30T09:00:42.452Z,21.64
2019-05-30T09:01:26.063Z,21.66
2019-05-30T09:02:09.279Z,21.66
2019-05-30T09:02:52.713Z,21.67
2019-05-30T09:03:36.282Z,21.67
2019-05-30T09:04:19.574Z,21.67
2019-05-30T09:05:06.724Z,21.68
2019-05-30T09:06:02.614Z,21.68
2019-05-30T09:06:33.007Z,21.68
2019-05-30T09:07:16.666Z,21.70
2019-05-30T09:08:00.220Z,21.70
2019-05-30T09:08:44.253Z,21.71
2019-05-30T09:09:28.087Z,21.72
2019-05-30T09:10:13.256Z,21.74
2019-05-30T09:10:56.421Z,21.76
2019-05-30T09:11:40.579Z,21.76
2019-05-30T09:12:24.646Z,21.77
2019-05-30T09:13:07.660Z,21.77
2019-05-30T09:13:51.187Z,21.78
2019-05-30T09:14:34.778Z,21.78
2019-05-30T09:15:21.729Z,21.78
2019-05-30T09:16:04.368Z,21.79
2019-05-30T09:16:48.248Z,21.78
2019-05-30T09:17:32.077Z,21.81
2019-05-30T09:18:15.877Z,21.81
2019-05-30T09:18:59.301Z,21.83
2019-05-30T09:19:43.180Z,21.82
2019-05-30T09:20:27.218Z,21.83
2019-05-30T09:21:10.749Z,21.84
2019-05-30T09:21:53.896Z,21.85
2019-05-30T09:22:39.400Z,21.85
2019-05-30T09:23:22.652Z,21.85
2019-05-30T09:24:06.357Z,21.85
2019-05-30T09:24:50.007Z,21.86
2019-05-30T09:25:34.036Z,21.87
2019-05-30T09:26:16.926Z,21.87
2019-05-30T09:27:00.366Z,21.86
2019-05-30T09:27:44.803Z,21.86